sensor_id;sensor_type;location;lat;lon;timestamp;P1;durP1;ratioP1;P2;durP2;ratioP2
2119;SDS011;1066;52.540;13.420;2023-02-03T00:01:52;8.80;;;3.93;;
2119;SDS011;1066;52.540;13.420;2023-02-03T00:04:17;7.10;;;3.37;;
2119;SDS011;1066;52.540;13.420;2023-02-03T00:06:43;5.93;;;3.17;;
2119;SDS011;1066;52.540;13.420;2023-02-03T00:09:08;8.50;;;3.20;;
2119;SDS011;1066;52.540;13.420;2023-02-03T00:11:34;7.00;;;3.60;;
2119;SDS011;1066;52.540;13.420;2023-02-03T00:13:59;7.00;;;4.10;;
2119;SDS011;1066;52.540;13.420;2023-02-03T00:16:24;7.17;;;4.40;;
2119;SDS011;1066;52.540;13.420;2023-02-03T00:18:50;7.30;;;4.53;;
2119;SDS011;1066;52.540;13.420;2023-02-03T00:21:15;10.07;;;3.63;;
2119;SDS011;1066;52.540;13.420;2023-02-03T00:23:41;7.57;;;3.70;;
2119;SDS011;1066;52.540;13.420;2023-02-03T00:26:10;7.63;;;4.10;;
2119;SDS011;1066;52.540;13.420;2023-02-03T00:28:37;7.53;;;4.40;;
2119;SDS011;1066;52.540;13.420;2023-02-03T00:31:02;7.73;;;3.67;;
2119;SDS011;1066;52.540;13.420;2023-02-03T00:33:28;4.27;;;3.20;;
2119;SDS011;1066;52.540;13.420;2023-02-03T00:35:54;7.97;;;3.90;;
2119;SDS011;1066;52.540;13.420;2023-02-03T00:38:19;4.63;;;3.20;;
2119;SDS011;1066;52.540;13.420;2023-02-03T00:40:54;6.83;;;3.50;;
2119;SDS011;1066;52.540;13.420;2023-02-03T00:43:19;6.93;;;3.17;;
2119;SDS011;1066;52.540;13.420;2023-02-03T00:45:45;9.37;;;3.63;;
2119;SDS011;1066;52.540;13.420;2023-02-03T00:48:11;8.50;;;3.57;;
2119;SDS011;1066;52.540;13.420;2023-02-03T00:50:36;5.70;;;3.60;;
2119;SDS011;1066;52.540;13.420;2023-02-03T00:53:02;9.70;;;4.40;;
2119;SDS011;1066;52.540;13.420;2023-02-03T00:55:27;5.30;;;3.60;;
2119;SDS011;1066;52.540;13.420;2023-02-03T00:57:52;5.30;;;3.30;;
2119;SDS011;1066;52.540;13.420;2023-02-03T01:00:18;7.87;;;3.87;;
2119;SDS011;1066;52.540;13.420;2023-02-03T01:02:44;12.93;;;4.10;;
2119;SDS011;1066;52.540;13.420;2023-02-03T01:05:09;7.60;;;4.00;;
2119;SDS011;1066;52.540;13.420;2023-02-03T01:07:35;7.90;;;3.63;;
2119;SDS011;1066;52.540;13.420;2023-02-03T01:10:00;6.40;;;2.83;;
2119;SDS011;1066;52.540;13.420;2023-02-03T01:12:27;10.67;;;4.87;;
2119;SDS011;1066;52.540;13.420;2023-02-03T01:14:56;7.53;;;4.00;;
2119;SDS011;1066;52.540;13.420;2023-02-03T01:17:22;6.07;;;3.80;;
2119;SDS011;1066;52.540;13.420;2023-02-03T01:19:47;5.30;;;3.90;;
2119;SDS011;1066;52.540;13.420;2023-02-03T01:22:14;4.87;;;3.47;;
2119;SDS011;1066;52.540;13.420;2023-02-03T01:24:40;10.03;;;4.37;;
2119;SDS011;1066;52.540;13.420;2023-02-03T01:27:05;6.33;;;4.07;;
2119;SDS011;1066;52.540;13.420;2023-02-03T01:29:30;8.17;;;4.00;;
2119;SDS011;1066;52.540;13.420;2023-02-03T01:31:56;6.63;;;3.63;;
2119;SDS011;1066;52.540;13.420;2023-02-03T01:34:21;8.83;;;4.53;;
2119;SDS011;1066;52.540;13.420;2023-02-03T01:36:46;7.03;;;5.03;;
2119;SDS011;1066;52.540;13.420;2023-02-03T01:39:12;3.93;;;3.50;;
2119;SDS011;1066;52.540;13.420;2023-02-03T01:41:38;9.17;;;4.20;;
2119;SDS011;1066;52.540;13.420;2023-02-03T01:49:51;5.20;;;3.80;;
2119;SDS011;1066;52.540;13.420;2023-02-03T01:52:19;6.13;;;4.20;;
2119;SDS011;1066;52.540;13.420;2023-02-03T01:54:45;6.60;;;3.70;;
2119;SDS011;1066;52.540;13.420;2023-02-03T01:57:14;4.77;;;4.07;;
2119;SDS011;1066;52.540;13.420;2023-02-03T01:59:42;6.73;;;4.27;;
2119;SDS011;1066;52.540;13.420;2023-02-03T02:02:08;5.80;;;3.60;;
2119;SDS011;1066;52.540;13.420;2023-02-03T02:04:36;6.67;;;4.50;;
2119;SDS011;1066;52.540;13.420;2023-02-03T02:07:22;7.03;;;5.30;;
2119;SDS011;1066;52.540;13.420;2023-02-03T02:09:47;4.97;;;4.47;;
2119;SDS011;1066;52.540;13.420;2023-02-03T02:12:13;4.97;;;4.03;;
2119;SDS011;1066;52.540;13.420;2023-02-03T02:14:38;7.20;;;3.80;;
2119;SDS011;1066;52.540;13.420;2023-02-03T02:17:30;6.17;;;4.20;;
2119;SDS011;1066;52.540;13.420;2023-02-03T02:22:58;5.07;;;4.57;;
2119;SDS011;1066;52.540;13.420;2023-02-03T02:28:25;6.47;;;3.87;;
2119;SDS011;1066;52.540;13.420;2023-02-03T02:31:05;5.03;;;4.17;;
2119;SDS011;1066;52.540;13.420;2023-02-03T02:34:03;8.23;;;4.23;;
2119;SDS011;1066;52.540;13.420;2023-02-03T02:39:09;5.07;;;3.60;;
2119;SDS011;1066;52.540;13.420;2023-02-03T02:41:45;4.93;;;4.47;;
2119;SDS011;1066;52.540;13.420;2023-02-03T02:44:18;6.43;;;4.80;;
2119;SDS011;1066;52.540;13.420;2023-02-03T02:47:00;6.20;;;4.37;;
2119;SDS011;1066;52.540;13.420;2023-02-03T02:52:02;5.10;;;4.60;;
2119;SDS011;1066;52.540;13.420;2023-02-03T02:54:29;8.20;;;4.63;;
2119;SDS011;1066;52.540;13.420;2023-02-03T02:56:57;5.60;;;5.10;;
2119;SDS011;1066;52.540;13.420;2023-02-03T02:59:24;5.93;;;4.43;;
2119;SDS011;1066;52.540;13.420;2023-02-03T03:01:49;4.20;;;3.80;;
2119;SDS011;1066;52.540;13.420;2023-02-03T03:04:17;7.10;;;4.67;;
2119;SDS011;1066;52.540;13.420;2023-02-03T03:06:47;5.30;;;3.70;;
2119;SDS011;1066;52.540;13.420;2023-02-03T03:09:20;6.00;;;4.60;;
2119;SDS011;1066;52.540;13.420;2023-02-03T03:11:52;6.00;;;4.27;;
2119;SDS011;1066;52.540;13.420;2023-02-03T03:14:22;6.30;;;3.80;;
2119;SDS011;1066;52.540;13.420;2023-02-03T03:16:53;4.30;;;3.53;;
2119;SDS011;1066;52.540;13.420;2023-02-03T03:19:22;4.50;;;3.53;;
2119;SDS011;1066;52.540;13.420;2023-02-03T03:21:53;4.13;;;3.73;;
2119;SDS011;1066;52.540;13.420;2023-02-03T03:24:22;3.80;;;3.37;;
2119;SDS011;1066;52.540;13.420;2023-02-03T03:26:51;3.70;;;3.40;;
2119;SDS011;1066;52.540;13.420;2023-02-03T03:31:59;5.03;;;3.40;;
2119;SDS011;1066;52.540;13.420;2023-02-03T03:34:25;3.73;;;3.33;;
2119;SDS011;1066;52.540;13.420;2023-02-03T03:37:10;3.87;;;3.57;;
2119;SDS011;1066;52.540;13.420;2023-02-03T03:42:45;3.80;;;2.40;;
2119;SDS011;1066;52.540;13.420;2023-02-03T03:50:14;3.10;;;2.77;;
2119;SDS011;1066;52.540;13.420;2023-02-03T03:52:42;2.50;;;2.30;;
2119;SDS011;1066;52.540;13.420;2023-02-03T03:55:08;2.60;;;2.40;;
2119;SDS011;1066;52.540;13.420;2023-02-03T04:00:04;3.20;;;2.40;;
2119;SDS011;1066;52.540;13.420;2023-02-03T04:02:31;4.10;;;2.50;;
2119;SDS011;1066;52.540;13.420;2023-02-03T04:04:58;2.77;;;2.57;;
2119;SDS011;1066;52.540;13.420;2023-02-03T04:07:24;3.77;;;3.20;;
2119;SDS011;1066;52.540;13.420;2023-02-03T04:10:19;2.30;;;2.10;;
2119;SDS011;1066;52.540;13.420;2023-02-03T04:12:49;2.70;;;2.50;;
2119;SDS011;1066;52.540;13.420;2023-02-03T04:15:14;4.40;;;2.87;;
2119;SDS011;1066;52.540;13.420;2023-02-03T04:17:40;2.43;;;2.23;;
2119;SDS011;1066;52.540;13.420;2023-02-03T04:20:06;2.97;;;2.67;;
2119;SDS011;1066;52.540;13.420;2023-02-03T04:22:31;3.57;;;3.23;;
2119;SDS011;1066;52.540;13.420;2023-02-03T04:24:56;2.43;;;2.23;;
2119;SDS011;1066;52.540;13.420;2023-02-03T04:27:23;3.60;;;3.30;;
2119;SDS011;1066;52.540;13.420;2023-02-03T04:29:49;3.17;;;2.97;;
2119;SDS011;1066;52.540;13.420;2023-02-03T04:32:15;2.90;;;2.70;;
2119;SDS011;1066;52.540;13.420;2023-02-03T04:34:40;4.13;;;3.83;;
2119;SDS011;1066;52.540;13.420;2023-02-03T04:37:05;4.70;;;4.30;;
2119;SDS011;1066;52.540;13.420;2023-02-03T04:39:31;5.43;;;4.93;;
2119;SDS011;1066;52.540;13.420;2023-02-03T04:41:56;6.00;;;5.20;;
2119;SDS011;1066;52.540;13.420;2023-02-03T04:44:21;6.47;;;5.87;;
2119;SDS011;1066;52.540;13.420;2023-02-03T04:46:47;6.10;;;5.50;;
2119;SDS011;1066;52.540;13.420;2023-02-03T04:49:13;4.70;;;4.30;;
2119;SDS011;1066;52.540;13.420;2023-02-03T04:51:38;4.97;;;4.57;;
2119;SDS011;1066;52.540;13.420;2023-02-03T04:54:03;7.50;;;6.33;;
2119;SDS011;1066;52.540;13.420;2023-02-03T04:56:29;6.83;;;5.53;;
2119;SDS011;1066;52.540;13.420;2023-02-03T04:58:54;6.73;;;5.30;;
2119;SDS011;1066;52.540;13.420;2023-02-03T05:01:19;5.97;;;5.37;;
2119;SDS011;1066;52.540;13.420;2023-02-03T05:03:44;6.20;;;5.60;;
2119;SDS011;1066;52.540;13.420;2023-02-03T05:06:10;6.83;;;6.27;;
2119;SDS011;1066;52.540;13.420;2023-02-03T05:08:35;6.80;;;6.20;;
2119;SDS011;1066;52.540;13.420;2023-02-03T05:11:00;10.37;;;8.20;;
2119;SDS011;1066;52.540;13.420;2023-02-03T05:13:26;8.93;;;7.90;;
2119;SDS011;1066;52.540;13.420;2023-02-03T05:15:51;9.23;;;8.03;;
2119;SDS011;1066;52.540;13.420;2023-02-03T05:18:17;9.20;;;8.30;;
2119;SDS011;1066;52.540;13.420;2023-02-03T05:20:42;10.17;;;9.13;;
2119;SDS011;1066;52.540;13.420;2023-02-03T05:23:07;12.17;;;9.47;;
2119;SDS011;1066;52.540;13.420;2023-02-03T05:25:33;12.97;;;10.23;;
2119;SDS011;1066;52.540;13.420;2023-02-03T05:27:58;12.63;;;10.57;;
2119;SDS011;1066;52.540;13.420;2023-02-03T05:30:23;12.23;;;10.93;;
2119;SDS011;1066;52.540;13.420;2023-02-03T05:32:49;13.30;;;11.80;;
2119;SDS011;1066;52.540;13.420;2023-02-03T05:35:14;11.87;;;10.67;;
2119;SDS011;1066;52.540;13.420;2023-02-03T05:37:39;16.53;;;11.40;;
2119;SDS011;1066;52.540;13.420;2023-02-03T05:40:05;13.33;;;11.93;;
2119;SDS011;1066;52.540;13.420;2023-02-03T05:42:49;15.87;;;12.50;;
2119;SDS011;1066;52.540;13.420;2023-02-03T05:45:15;13.27;;;11.80;;
2119;SDS011;1066;52.540;13.420;2023-02-03T05:47:41;13.33;;;11.40;;
2119;SDS011;1066;52.540;13.420;2023-02-03T05:50:06;15.43;;;12.30;;
2119;SDS011;1066;52.540;13.420;2023-02-03T05:52:32;14.77;;;13.03;;
2119;SDS011;1066;52.540;13.420;2023-02-03T05:54:57;16.10;;;12.87;;
2119;SDS011;1066;52.540;13.420;2023-02-03T05:57:23;16.33;;;13.80;;
2119;SDS011;1066;52.540;13.420;2023-02-03T05:59:48;19.37;;;13.63;;
2119;SDS011;1066;52.540;13.420;2023-02-03T06:02:14;16.10;;;14.40;;
2119;SDS011;1066;52.540;13.420;2023-02-03T06:04:39;19.93;;;15.63;;
2119;SDS011;1066;52.540;13.420;2023-02-03T06:07:05;19.00;;;13.30;;
2119;SDS011;1066;52.540;13.420;2023-02-03T06:09:30;15.37;;;13.83;;
2119;SDS011;1066;52.540;13.420;2023-02-03T06:11:55;18.20;;;14.07;;
2119;SDS011;1066;52.540;13.420;2023-02-03T06:14:21;21.00;;;14.90;;
2119;SDS011;1066;52.540;13.420;2023-02-03T06:16:46;16.37;;;14.73;;
2119;SDS011;1066;52.540;13.420;2023-02-03T06:19:11;16.90;;;14.13;;
2119;SDS011;1066;52.540;13.420;2023-02-03T06:21:37;14.83;;;13.33;;
2119;SDS011;1066;52.540;13.420;2023-02-03T06:24:02;19.03;;;14.03;;
2119;SDS011;1066;52.540;13.420;2023-02-03T06:26:28;16.93;;;14.90;;
2119;SDS011;1066;52.540;13.420;2023-02-03T06:28:53;14.60;;;12.87;;
2119;SDS011;1066;52.540;13.420;2023-02-03T06:31:18;17.37;;;13.63;;
2119;SDS011;1066;52.540;13.420;2023-02-03T06:33:44;14.57;;;13.07;;
2119;SDS011;1066;52.540;13.420;2023-02-03T06:36:09;18.00;;;13.00;;
2119;SDS011;1066;52.540;13.420;2023-02-03T06:38:34;17.63;;;14.20;;
2119;SDS011;1066;52.540;13.420;2023-02-03T06:41:00;13.13;;;11.83;;
2119;SDS011;1066;52.540;13.420;2023-02-03T06:43:25;17.20;;;13.63;;
2119;SDS011;1066;52.540;13.420;2023-02-03T06:45:50;16.30;;;14.57;;
2119;SDS011;1066;52.540;13.420;2023-02-03T06:48:16;13.33;;;12.03;;
2119;SDS011;1066;52.540;13.420;2023-02-03T06:50:41;13.07;;;11.70;;
2119;SDS011;1066;52.540;13.420;2023-02-03T06:53:07;17.83;;;13.63;;
2119;SDS011;1066;52.540;13.420;2023-02-03T06:55:32;14.23;;;12.27;;
2119;SDS011;1066;52.540;13.420;2023-02-03T06:57:57;15.93;;;12.90;;
2119;SDS011;1066;52.540;13.420;2023-02-03T07:00:23;12.90;;;11.50;;
2119;SDS011;1066;52.540;13.420;2023-02-03T07:02:51;16.27;;;13.87;;
2119;SDS011;1066;52.540;13.420;2023-02-03T07:05:18;20.00;;;13.40;;
2119;SDS011;1066;52.540;13.420;2023-02-03T07:07:43;13.93;;;12.07;;
2119;SDS011;1066;52.540;13.420;2023-02-03T07:10:08;15.13;;;13.10;;
2119;SDS011;1066;52.540;13.420;2023-02-03T07:12:34;16.80;;;14.30;;
2119;SDS011;1066;52.540;13.420;2023-02-03T07:15:00;12.90;;;11.23;;
2119;SDS011;1066;52.540;13.420;2023-02-03T07:17:26;19.77;;;13.60;;
2119;SDS011;1066;52.540;13.420;2023-02-03T07:19:51;18.73;;;13.63;;
2119;SDS011;1066;52.540;13.420;2023-02-03T07:22:17;13.07;;;11.37;;
2119;SDS011;1066;52.540;13.420;2023-02-03T07:24:42;15.27;;;13.37;;
2119;SDS011;1066;52.540;13.420;2023-02-03T07:27:08;15.57;;;13.90;;
2119;SDS011;1066;52.540;13.420;2023-02-03T07:29:33;16.40;;;12.77;;
2119;SDS011;1066;52.540;13.420;2023-02-03T07:31:58;16.27;;;13.10;;
2119;SDS011;1066;52.540;13.420;2023-02-03T07:34:26;18.60;;;13.20;;
2119;SDS011;1066;52.540;13.420;2023-02-03T07:36:52;15.10;;;12.10;;
2119;SDS011;1066;52.540;13.420;2023-02-03T07:39:17;13.50;;;12.10;;
2119;SDS011;1066;52.540;13.420;2023-02-03T07:41:42;16.37;;;12.50;;
2119;SDS011;1066;52.540;13.420;2023-02-03T07:44:08;14.83;;;12.20;;
2119;SDS011;1066;52.540;13.420;2023-02-03T07:46:33;13.40;;;12.10;;
2119;SDS011;1066;52.540;13.420;2023-02-03T07:48:59;16.97;;;14.53;;
2119;SDS011;1066;52.540;13.420;2023-02-03T07:51:24;12.70;;;11.40;;
2119;SDS011;1066;52.540;13.420;2023-02-03T07:53:50;14.00;;;12.60;;
2119;SDS011;1066;52.540;13.420;2023-02-03T07:56:15;12.80;;;11.60;;
2119;SDS011;1066;52.540;13.420;2023-02-03T07:58:41;10.90;;;9.80;;
2119;SDS011;1066;52.540;13.420;2023-02-03T08:01:13;11.80;;;9.80;;
2119;SDS011;1066;52.540;13.420;2023-02-03T08:03:39;11.13;;;10.10;;
2119;SDS011;1066;52.540;13.420;2023-02-03T08:06:06;10.43;;;9.23;;
2119;SDS011;1066;52.540;13.420;2023-02-03T08:08:32;12.20;;;10.53;;
2119;SDS011;1066;52.540;13.420;2023-02-03T08:10:57;15.80;;;10.37;;
2119;SDS011;1066;52.540;13.420;2023-02-03T08:13:22;12.13;;;10.90;;
2119;SDS011;1066;52.540;13.420;2023-02-03T08:15:48;10.90;;;9.50;;
2119;SDS011;1066;52.540;13.420;2023-02-03T08:18:13;10.80;;;9.57;;
2119;SDS011;1066;52.540;13.420;2023-02-03T08:20:38;10.53;;;9.47;;
2119;SDS011;1066;52.540;13.420;2023-02-03T08:23:04;10.90;;;9.73;;
2119;SDS011;1066;52.540;13.420;2023-02-03T08:25:29;14.70;;;8.60;;
2119;SDS011;1066;52.540;13.420;2023-02-03T08:27:55;10.63;;;9.53;;
2119;SDS011;1066;52.540;13.420;2023-02-03T08:30:20;10.80;;;9.80;;
2119;SDS011;1066;52.540;13.420;2023-02-03T08:32:46;9.03;;;8.23;;
2119;SDS011;1066;52.540;13.420;2023-02-03T08:35:11;9.43;;;8.63;;
2119;SDS011;1066;52.540;13.420;2023-02-03T08:37:37;9.27;;;7.70;;
2119;SDS011;1066;52.540;13.420;2023-02-03T08:40:02;9.37;;;8.57;;
2119;SDS011;1066;52.540;13.420;2023-02-03T08:42:29;9.33;;;8.07;;
2119;SDS011;1066;52.540;13.420;2023-02-03T08:44:54;9.63;;;7.90;;
2119;SDS011;1066;52.540;13.420;2023-02-03T08:47:20;14.00;;;8.40;;
2119;SDS011;1066;52.540;13.420;2023-02-03T08:49:45;9.23;;;8.07;;
2119;SDS011;1066;52.540;13.420;2023-02-03T08:52:11;7.97;;;7.17;;
2119;SDS011;1066;52.540;13.420;2023-02-03T08:54:37;9.60;;;8.60;;
2119;SDS011;1066;52.540;13.420;2023-02-03T08:57:02;8.23;;;7.43;;
2119;SDS011;1066;52.540;13.420;2023-02-03T08:59:28;9.37;;;7.40;;
2119;SDS011;1066;52.540;13.420;2023-02-03T09:01:54;11.50;;;10.10;;
2119;SDS011;1066;52.540;13.420;2023-02-03T09:04:19;10.20;;;9.20;;
2119;SDS011;1066;52.540;13.420;2023-02-03T09:06:49;8.37;;;7.53;;
2119;SDS011;1066;52.540;13.420;2023-02-03T09:09:15;9.37;;;8.43;;
2119;SDS011;1066;52.540;13.420;2023-02-03T09:11:40;10.27;;;8.20;;
2119;SDS011;1066;52.540;13.420;2023-02-03T09:14:06;9.10;;;7.23;;
2119;SDS011;1066;52.540;13.420;2023-02-03T09:16:32;8.00;;;7.20;;
2119;SDS011;1066;52.540;13.420;2023-02-03T09:18:57;8.60;;;7.80;;
2119;SDS011;1066;52.540;13.420;2023-02-03T09:21:23;10.40;;;7.47;;
2119;SDS011;1066;52.540;13.420;2023-02-03T09:23:48;9.00;;;8.10;;
2119;SDS011;1066;52.540;13.420;2023-02-03T09:26:14;11.03;;;7.93;;
2119;SDS011;1066;52.540;13.420;2023-02-03T09:28:40;10.80;;;7.90;;
2119;SDS011;1066;52.540;13.420;2023-02-03T09:31:06;10.03;;;7.53;;
2119;SDS011;1066;52.540;13.420;2023-02-03T09:33:33;9.70;;;7.73;;
2119;SDS011;1066;52.540;13.420;2023-02-03T09:35:59;8.67;;;7.37;;
2119;SDS011;1066;52.540;13.420;2023-02-03T09:38:24;7.50;;;6.67;;
2119;SDS011;1066;52.540;13.420;2023-02-03T09:40:52;7.90;;;7.10;;
2119;SDS011;1066;52.540;13.420;2023-02-03T09:45:53;8.43;;;7.03;;
2119;SDS011;1066;52.540;13.420;2023-02-03T09:48:20;13.70;;;8.00;;
2119;SDS011;1066;52.540;13.420;2023-02-03T09:50:49;10.90;;;7.87;;
2119;SDS011;1066;52.540;13.420;2023-02-03T09:53:34;33.03;;;11.27;;
2119;SDS011;1066;52.540;13.420;2023-02-03T09:56:03;6.87;;;6.27;;
2119;SDS011;1066;52.540;13.420;2023-02-03T09:58:31;9.93;;;6.57;;
2119;SDS011;1066;52.540;13.420;2023-02-03T10:01:04;6.90;;;6.30;;
2119;SDS011;1066;52.540;13.420;2023-02-03T10:03:53;7.10;;;5.97;;
2119;SDS011;1066;52.540;13.420;2023-02-03T10:06:32;7.83;;;6.40;;
2119;SDS011;1066;52.540;13.420;2023-02-03T10:17:26;7.53;;;5.80;;
2119;SDS011;1066;52.540;13.420;2023-02-03T10:22:34;5.57;;;4.97;;
2119;SDS011;1066;52.540;13.420;2023-02-03T10:27:31;7.53;;;6.27;;
2119;SDS011;1066;52.540;13.420;2023-02-03T10:30:02;4.50;;;4.10;;
2119;SDS011;1066;52.540;13.420;2023-02-03T10:32:29;7.87;;;4.73;;
2119;SDS011;1066;52.540;13.420;2023-02-03T10:34:54;4.53;;;3.50;;
2119;SDS011;1066;52.540;13.420;2023-02-03T10:39:56;6.27;;;4.80;;
2119;SDS011;1066;52.540;13.420;2023-02-03T10:42:22;5.93;;;3.50;;
2119;SDS011;1066;52.540;13.420;2023-02-03T10:44:48;3.30;;;2.10;;
2119;SDS011;1066;52.540;13.420;2023-02-03T10:49:55;3.10;;;1.73;;
2119;SDS011;1066;52.540;13.420;2023-02-03T10:52:25;10.37;;;2.07;;
2119;SDS011;1066;52.540;13.420;2023-02-03T10:54:55;8.40;;;2.27;;
2119;SDS011;1066;52.540;13.420;2023-02-03T10:57:23;6.00;;;2.30;;
2119;SDS011;1066;52.540;13.420;2023-02-03T10:59:48;5.07;;;1.83;;
2119;SDS011;1066;52.540;13.420;2023-02-03T11:02:24;4.87;;;1.60;;
2119;SDS011;1066;52.540;13.420;2023-02-03T11:07:40;6.10;;;2.70;;
2119;SDS011;1066;52.540;13.420;2023-02-03T11:18:37;11.37;;;3.33;;
2119;SDS011;1066;52.540;13.420;2023-02-03T11:21:20;8.07;;;2.63;;
2119;SDS011;1066;52.540;13.420;2023-02-03T11:23:52;13.77;;;2.67;;
2119;SDS011;1066;52.540;13.420;2023-02-03T11:26:24;11.83;;;2.70;;
2119;SDS011;1066;52.540;13.420;2023-02-03T11:28:51;8.30;;;3.30;;
2119;SDS011;1066;52.540;13.420;2023-02-03T11:31:19;13.57;;;2.90;;
2119;SDS011;1066;52.540;13.420;2023-02-03T11:33:48;13.90;;;3.17;;
2119;SDS011;1066;52.540;13.420;2023-02-03T11:36:16;6.10;;;2.67;;
2119;SDS011;1066;52.540;13.420;2023-02-03T11:38:42;10.60;;;4.10;;
2119;SDS011;1066;52.540;13.420;2023-02-03T11:41:18;8.73;;;3.00;;
2119;SDS011;1066;52.540;13.420;2023-02-03T11:43:44;10.80;;;5.00;;
2119;SDS011;1066;52.540;13.420;2023-02-03T11:46:10;11.87;;;4.87;;
2119;SDS011;1066;52.540;13.420;2023-02-03T11:51:38;17.97;;;5.30;;
2119;SDS011;1066;52.540;13.420;2023-02-03T11:57:16;19.50;;;8.60;;
2119;SDS011;1066;52.540;13.420;2023-02-03T12:27:07;17.20;;;5.73;;
2119;SDS011;1066;52.540;13.420;2023-02-03T12:29:45;15.90;;;5.87;;
2119;SDS011;1066;52.540;13.420;2023-02-03T12:32:16;14.90;;;5.40;;
2119;SDS011;1066;52.540;13.420;2023-02-03T12:34:49;16.43;;;5.80;;
2119;SDS011;1066;52.540;13.420;2023-02-03T12:37:22;7.73;;;4.60;;
2119;SDS011;1066;52.540;13.420;2023-02-03T12:39:51;12.20;;;5.47;;
2119;SDS011;1066;52.540;13.420;2023-02-03T12:45:13;17.77;;;5.87;;
2119;SDS011;1066;52.540;13.420;2023-02-03T12:47:46;22.43;;;5.30;;
2119;SDS011;1066;52.540;13.420;2023-02-03T12:52:52;16.43;;;5.40;;
2119;SDS011;1066;52.540;13.420;2023-02-03T12:55:42;20.30;;;6.40;;
2119;SDS011;1066;52.540;13.420;2023-02-03T12:58:11;8.00;;;2.50;;
2119;SDS011;1066;52.540;13.420;2023-02-03T13:00:46;5.13;;;1.83;;
2119;SDS011;1066;52.540;13.420;2023-02-03T13:14:03;8.70;;;3.20;;
2119;SDS011;1066;52.540;13.420;2023-02-03T13:16:34;7.90;;;3.23;;
2119;SDS011;1066;52.540;13.420;2023-02-03T13:19:04;6.33;;;2.53;;
2119;SDS011;1066;52.540;13.420;2023-02-03T13:21:32;11.47;;;2.97;;
2119;SDS011;1066;52.540;13.420;2023-02-03T13:23:57;9.10;;;4.83;;
2119;SDS011;1066;52.540;13.420;2023-02-03T13:32:20;12.37;;;3.53;;
2119;SDS011;1066;52.540;13.420;2023-02-03T13:40:40;12.07;;;4.37;;
2119;SDS011;1066;52.540;13.420;2023-02-03T13:43:11;10.43;;;3.73;;
2119;SDS011;1066;52.540;13.420;2023-02-03T13:45:39;9.40;;;3.00;;
2119;SDS011;1066;52.540;13.420;2023-02-03T13:48:09;14.30;;;4.27;;
2119;SDS011;1066;52.540;13.420;2023-02-03T13:50:38;13.30;;;3.13;;
2119;SDS011;1066;52.540;13.420;2023-02-03T13:53:14;18.77;;;5.00;;
2119;SDS011;1066;52.540;13.420;2023-02-03T13:55:43;11.17;;;4.17;;
2119;SDS011;1066;52.540;13.420;2023-02-03T13:58:19;16.30;;;4.30;;
2119;SDS011;1066;52.540;13.420;2023-02-03T14:05:57;20.43;;;4.23;;
2119;SDS011;1066;52.540;13.420;2023-02-03T14:16:38;16.83;;;5.87;;
2119;SDS011;1066;52.540;13.420;2023-02-03T14:21:58;18.50;;;5.60;;
2119;SDS011;1066;52.540;13.420;2023-02-03T14:24:33;22.23;;;5.40;;
2119;SDS011;1066;52.540;13.420;2023-02-03T14:27:01;11.97;;;4.97;;
2119;SDS011;1066;52.540;13.420;2023-02-03T14:29:28;15.77;;;4.67;;
2119;SDS011;1066;52.540;13.420;2023-02-03T14:34:29;16.13;;;6.20;;
2119;SDS011;1066;52.540;13.420;2023-02-03T14:37:07;16.70;;;5.80;;
2119;SDS011;1066;52.540;13.420;2023-02-03T14:39:58;15.20;;;6.23;;
2119;SDS011;1066;52.540;13.420;2023-02-03T14:42:52;15.50;;;6.57;;
2119;SDS011;1066;52.540;13.420;2023-02-03T14:51:20;15.77;;;5.53;;
2119;SDS011;1066;52.540;13.420;2023-02-03T14:59:54;21.83;;;8.13;;
2119;SDS011;1066;52.540;13.420;2023-02-03T15:02:23;22.07;;;6.90;;
2119;SDS011;1066;52.540;13.420;2023-02-03T15:07:43;20.87;;;6.27;;
2119;SDS011;1066;52.540;13.420;2023-02-03T15:12:43;23.47;;;7.23;;
2119;SDS011;1066;52.540;13.420;2023-02-03T15:15:24;19.13;;;5.80;;
2119;SDS011;1066;52.540;13.420;2023-02-03T15:17:51;22.97;;;5.83;;
2119;SDS011;1066;52.540;13.420;2023-02-03T15:23:20;15.80;;;5.17;;
2119;SDS011;1066;52.540;13.420;2023-02-03T15:25:54;19.63;;;5.87;;
2119;SDS011;1066;52.540;13.420;2023-02-03T15:28:24;14.77;;;5.20;;
2119;SDS011;1066;52.540;13.420;2023-02-03T15:30:53;12.70;;;5.80;;
2119;SDS011;1066;52.540;13.420;2023-02-03T15:33:47;15.60;;;5.40;;
2119;SDS011;1066;52.540;13.420;2023-02-03T15:36:24;21.50;;;5.50;;
2119;SDS011;1066;52.540;13.420;2023-02-03T15:38:57;17.40;;;5.40;;
2119;SDS011;1066;52.540;13.420;2023-02-03T15:41:30;15.80;;;4.70;;
2119;SDS011;1066;52.540;13.420;2023-02-03T15:43:57;17.60;;;5.90;;
2119;SDS011;1066;52.540;13.420;2023-02-03T15:46:47;17.67;;;6.20;;
2119;SDS011;1066;52.540;13.420;2023-02-03T15:49:15;14.40;;;5.13;;
2119;SDS011;1066;52.540;13.420;2023-02-03T15:51:45;15.40;;;5.30;;
2119;SDS011;1066;52.540;13.420;2023-02-03T15:56:47;10.83;;;4.67;;
2119;SDS011;1066;52.540;13.420;2023-02-03T15:59:24;14.17;;;3.77;;
2119;SDS011;1066;52.540;13.420;2023-02-03T16:01:53;11.10;;;3.77;;
2119;SDS011;1066;52.540;13.420;2023-02-03T16:04:18;12.00;;;4.57;;
2119;SDS011;1066;52.540;13.420;2023-02-03T16:06:45;15.13;;;5.60;;
2119;SDS011;1066;52.540;13.420;2023-02-03T16:12:01;13.00;;;3.83;;
2119;SDS011;1066;52.540;13.420;2023-02-03T16:14:31;10.53;;;5.47;;
2119;SDS011;1066;52.540;13.420;2023-02-03T16:16:57;20.00;;;7.03;;
2119;SDS011;1066;52.540;13.420;2023-02-03T16:19:23;15.30;;;4.57;;
2119;SDS011;1066;52.540;13.420;2023-02-03T16:21:53;20.80;;;3.80;;
2119;SDS011;1066;52.540;13.420;2023-02-03T16:24:34;15.67;;;5.43;;
2119;SDS011;1066;52.540;13.420;2023-02-03T16:27:28;22.80;;;5.50;;
2119;SDS011;1066;52.540;13.420;2023-02-03T16:35:51;17.73;;;6.40;;
2119;SDS011;1066;52.540;13.420;2023-02-03T16:38:35;16.50;;;4.73;;
2119;SDS011;1066;52.540;13.420;2023-02-03T16:41:19;16.63;;;5.10;;
2119;SDS011;1066;52.540;13.420;2023-02-03T16:44:04;19.73;;;5.80;;
2119;SDS011;1066;52.540;13.420;2023-02-03T16:46:47;13.60;;;4.63;;
2119;SDS011;1066;52.540;13.420;2023-02-03T16:49:31;21.70;;;6.63;;
2119;SDS011;1066;52.540;13.420;2023-02-03T16:52:15;13.23;;;5.70;;
2119;SDS011;1066;52.540;13.420;2023-02-03T16:54:40;19.87;;;5.40;;
2119;SDS011;1066;52.540;13.420;2023-02-03T16:57:06;14.47;;;5.53;;
2119;SDS011;1066;52.540;13.420;2023-02-03T16:59:31;18.97;;;6.87;;
2119;SDS011;1066;52.540;13.420;2023-02-03T17:01:56;27.03;;;7.13;;
2119;SDS011;1066;52.540;13.420;2023-02-03T17:04:22;14.20;;;5.20;;
2119;SDS011;1066;52.540;13.420;2023-02-03T17:06:47;14.70;;;6.27;;
2119;SDS011;1066;52.540;13.420;2023-02-03T17:09:15;14.50;;;5.90;;
2119;SDS011;1066;52.540;13.420;2023-02-03T17:11:46;20.37;;;5.73;;
2119;SDS011;1066;52.540;13.420;2023-02-03T17:14:11;18.00;;;6.60;;
2119;SDS011;1066;52.540;13.420;2023-02-03T17:16:37;11.97;;;5.17;;
2119;SDS011;1066;52.540;13.420;2023-02-03T17:19:02;17.03;;;5.10;;
2119;SDS011;1066;52.540;13.420;2023-02-03T17:21:28;17.73;;;5.20;;
2119;SDS011;1066;52.540;13.420;2023-02-03T17:23:53;13.90;;;4.83;;
2119;SDS011;1066;52.540;13.420;2023-02-03T17:26:19;14.27;;;5.90;;
2119;SDS011;1066;52.540;13.420;2023-02-03T17:28:44;14.97;;;5.50;;
2119;SDS011;1066;52.540;13.420;2023-02-03T17:31:14;21.13;;;5.60;;
2119;SDS011;1066;52.540;13.420;2023-02-03T17:33:41;21.53;;;6.50;;
2119;SDS011;1066;52.540;13.420;2023-02-03T17:36:08;17.97;;;5.73;;
2119;SDS011;1066;52.540;13.420;2023-02-03T17:38:39;17.20;;;4.70;;
2119;SDS011;1066;52.540;13.420;2023-02-03T17:41:09;19.63;;;5.57;;
2119;SDS011;1066;52.540;13.420;2023-02-03T17:43:35;14.07;;;5.73;;
2119;SDS011;1066;52.540;13.420;2023-02-03T17:46:00;21.40;;;5.60;;
2119;SDS011;1066;52.540;13.420;2023-02-03T17:48:26;17.13;;;5.60;;
2119;SDS011;1066;52.540;13.420;2023-02-03T17:50:51;20.33;;;6.87;;
2119;SDS011;1066;52.540;13.420;2023-02-03T17:53:16;19.67;;;6.80;;